createdAt,value
2022-09-09T00:02:35.652Z,93499.13
2022-09-09T00:07:58.311Z,93502.78
2022-09-09T00:13:25.413Z,93506.05
2022-09-09T00:19:01.018Z,93502.67
2022-09-09T00:24:36.742Z,93500.89
2022-09-09T00:29:47.891Z,93504.75
2022-09-09T00:35:08.086Z,93498.99
2022-09-09T00:40:28.913Z,93499.36
2022-09-09T00:46:11.226Z,93501.66
2022-09-09T00:51:22.451Z,93513.93
2022-09-09T00:56:43.852Z,93519.73
2022-09-09T01:01:53.466Z,93518.41
2022-09-09T01:07:06.642Z,93506.47
2022-09-09T01:12:30.734Z,93500.99
2022-09-09T01:18:04.316Z,93502.45
2022-09-09T01:23:50.462Z,93503.03
2022-09-09T01:28:58.462Z,93506.98
2022-09-09T01:34:07.023Z,93505.50
2022-09-09T01:39:16.011Z,93506.77
2022-09-09T01:44:25.334Z,93500.67
2022-09-09T01:49:34.208Z,93522.64
2022-09-09T01:54:42.302Z,93515.79
2022-09-09T02:00:11.061Z,93508.96
2022-09-09T02:05:31.121Z,93506.38
2022-09-09T02:11:11.029Z,93511.49
2022-09-09T02:16:33.883Z,93500.34
2022-09-09T02:21:41.050Z,93501.34
2022-09-09T02:26:53.497Z,93508.41
2022-09-09T02:32:04.553Z,93514.47
2022-09-09T02:37:13.758Z,93519.23
2022-09-09T02:42:21.459Z,93521.98
2022-09-09T02:47:49.295Z,93524.58
2022-09-09T02:53:18.837Z,93519.47
2022-09-09T02:58:27.690Z,93519.78
2022-09-09T03:03:35.846Z,93512.33
2022-09-09T03:08:49.265Z,93506.70
2022-09-09T03:13:51.572Z,93508.41
2022-09-09T03:18:58.279Z,93503.38
2022-09-09T03:24:05.366Z,93504.66
2022-09-09T03:29:13.629Z,93515.55
2022-09-09T03:34:20.939Z,93516.03
2022-09-09T03:39:27.621Z,93519.09
2022-09-09T03:44:34.310Z,93518.23
2022-09-09T03:49:40.975Z,93525.64
2022-09-09T03:54:47.662Z,93529.22
2022-09-09T03:59:54.344Z,93535.84
2022-09-09T04:05:01.067Z,93533.67
2022-09-09T04:10:10.450Z,93528.34
2022-09-09T04:15:17.158Z,93519.05
2022-09-09T04:20:23.998Z,93508.86
2022-09-09T04:25:31.257Z,93501.56
2022-09-09T04:30:37.933Z,93512.27
2022-09-09T04:35:54.253Z,93508.22
2022-09-09T04:41:01.180Z,93506.49
2022-09-09T04:46:08.814Z,93507.09
2022-09-09T04:51:17.941Z,93511.64
2022-09-09T04:56:24.742Z,93509.57
2022-09-09T05:01:31.407Z,93515.29
2022-09-09T05:06:39.049Z,93513.76
2022-09-09T05:11:45.714Z,93504.66
2022-09-09T05:16:52.912Z,93493.81
2022-09-09T05:22:00.120Z,93496.11
2022-09-09T05:27:07.311Z,93499.63
2022-09-09T05:32:15.696Z,93505.51
2022-09-09T05:37:22.474Z,93507.63
2022-09-09T05:42:33.887Z,93511.94
2022-09-09T05:47:40.569Z,93520.67
2022-09-09T05:52:47.245Z,93517.03
2022-09-09T05:57:53.941Z,93518.80
2022-09-09T06:03:00.740Z,93514.63
2022-09-09T06:08:09.255Z,93514.64
2022-09-09T06:13:15.997Z,93523.14
2022-09-09T06:18:23.418Z,93513.88
2022-09-09T06:23:31.469Z,93515.70
2022-09-09T06:28:40.074Z,93518.80
2022-09-09T06:33:47.987Z,93516.13
2022-09-09T06:38:55.673Z,93508.21
2022-09-09T06:44:02.496Z,93515.00
2022-09-09T06:49:10.211Z,93520.09
2022-09-09T06:54:17.893Z,93519.39
2022-09-09T06:59:24.911Z,93516.67
2022-09-09T07:04:31.615Z,93523.25
2022-09-09T07:09:38.301Z,93519.84
2022-09-09T07:14:44.986Z,93525.70
2022-09-09T07:20:02.655Z,93526.86
2022-09-09T07:31:40.466Z,93523.93
2022-09-09T07:36:48.111Z,93524.44
2022-09-09T07:41:56.492Z,93530.16
2022-09-09T07:47:03.710Z,93538.70
2022-09-09T07:52:10.481Z,93541.41
2022-09-09T07:57:19.607Z,93544.89
2022-09-09T08:02:30.554Z,93562.78
2022-09-09T08:07:37.170Z,93558.65
2022-09-09T08:13:01.393Z,93555.89
2022-09-09T08:17:52.270Z,93563.34
2022-09-09T08:23:00.238Z,93563.73
2022-09-09T08:28:07.445Z,93568.01
2022-09-09T08:33:14.113Z,93570.18
2022-09-09T08:38:22.028Z,93565.64
2022-09-09T08:43:30.827Z,93577.20
2022-09-09T08:48:50.777Z,93583.80
2022-09-09T08:54:01.720Z,93585.23
2022-09-09T08:59:10.113Z,93584.06
2022-09-09T09:05:05.953Z,93589.96
2022-09-09T09:10:52.299Z,93581.38
2022-09-09T09:16:19.617Z,93593.46
2022-09-09T09:21:39.593Z,93590.91
2022-09-09T09:26:48.198Z,93592.52
2022-09-09T09:31:58.353Z,93587.45
2022-09-09T09:37:09.457Z,93587.00
2022-09-09T09:42:23.103Z,93580.45
2022-09-09T09:47:30.907Z,93573.94
2022-09-09T09:52:38.767Z,93567.19
2022-09-09T09:57:46.406Z,93572.42
2022-09-09T10:02:54.583Z,93570.73
2022-09-09T10:08:13.916Z,93559.28
2022-09-09T10:14:05.827Z,93562.57
2022-09-09T10:19:37.571Z,93560.30
2022-09-09T10:24:57.427Z,93563.52
2022-09-09T10:30:22.884Z,93569.48
2022-09-09T10:35:41.143Z,93566.81
2022-09-09T10:40:58.182Z,93565.84
2022-09-09T10:46:29.467Z,93563.89
2022-09-09T10:52:00.185Z,93568.66
2022-09-09T10:57:26.183Z,93567.05
2022-09-09T11:02:36.292Z,93561.59
2022-09-09T11:07:54.627Z,93557.98
2022-09-09T11:13:06.387Z,93548.67
2022-09-09T11:18:17.751Z,93550.67
2022-09-09T11:23:29.279Z,93546.25
2022-09-09T11:29:16.959Z,93547.86
2022-09-09T11:34:50.969Z,93539.84
2022-09-09T11:40:21.130Z,93536.59
2022-09-09T11:45:30.898Z,93510.17
2022-09-09T11:50:42.168Z,93509.31
2022-09-09T11:55:49.753Z,93503.57
2022-09-09T12:00:56.428Z,93501.03
2022-09-09T12:06:24.385Z,93498.58
2022-09-09T12:11:33.219Z,93499.30
2022-09-09T12:16:41.780Z,93492.99
2022-09-09T12:22:26.945Z,93484.25
2022-09-09T12:27:39.310Z,93467.97
2022-09-09T12:32:48.710Z,93464.98
2022-09-09T12:38:04.511Z,93457.22
2022-09-09T12:43:27.153Z,93452.45
2022-09-09T12:48:42.851Z,93452.52
2022-09-09T12:53:52.299Z,93447.24
2022-09-09T12:59:02.566Z,93445.90
2022-09-09T13:04:21.909Z,93436.56
2022-09-09T13:09:28.636Z,93439.37
2022-09-09T13:14:40.061Z,93440.73
2022-09-09T13:19:48.590Z,93431.05
2022-09-09T13:25:14.418Z,93425.97
2022-09-09T13:30:39.956Z,93412.52
2022-09-09T13:35:59.170Z,93419.74
2022-09-09T13:41:09.607Z,93415.39
2022-09-09T13:46:37.935Z,93410.36
2022-09-09T13:51:52.936Z,93400.05
2022-09-09T13:56:59.744Z,93408.27
2022-09-09T14:02:06.598Z,93414.04
2022-09-09T14:07:16.922Z,93408.00
2022-09-09T14:12:24.115Z,93399.68
2022-09-09T14:17:50.166Z,93395.07
2022-09-09T14:23:02.746Z,93390.86
2022-09-09T14:28:06.763Z,93393.64
2022-09-09T14:33:16.873Z,93398.22
2022-09-09T14:38:23.593Z,93397.88
2022-09-09T14:43:31.328Z,93395.13
2022-09-09T14:48:40.759Z,93393.84
2022-09-09T14:53:48.683Z,93410.30
2022-09-09T14:58:58.941Z,93413.28
2022-09-09T15:04:08.144Z,93408.18
2022-09-09T15:09:14.935Z,93405.88
2022-09-09T15:14:25.311Z,93405.14
2022-09-09T15:19:30.635Z,93394.81
2022-09-09T15:24:38.459Z,93410.20
2022-09-09T15:29:46.358Z,93403.47
2022-09-09T15:34:54.554Z,93399.91
2022-09-09T15:40:02.722Z,93401.47
2022-09-09T15:45:11.680Z,93407.95
2022-09-09T15:50:18.508Z,93403.80
2022-09-09T15:55:28.205Z,93391.20
2022-09-09T16:00:35.626Z,93391.43
2022-09-09T16:05:42.915Z,93383.02
2022-09-09T16:10:49.725Z,93383.67
2022-09-09T16:15:59.402Z,93381.76
2022-09-09T16:21:07.516Z,93376.03
2022-09-09T16:26:19.696Z,93384.54
2022-09-09T16:31:30.236Z,93397.95
2022-09-09T16:36:40.264Z,93387.97
2022-09-09T16:41:51.360Z,93389.91
2022-09-09T16:47:00.802Z,93388.86
2022-09-09T16:52:06.450Z,93383.89
2022-09-09T16:57:13.124Z,93385.75
2022-09-09T17:02:19.950Z,93386.22
2022-09-09T17:07:26.680Z,93387.09
2022-09-09T17:12:33.985Z,93388.30
2022-09-09T17:17:40.688Z,93389.05
2022-09-09T17:22:47.500Z,93396.86
2022-09-09T17:27:54.683Z,93396.83
2022-09-09T17:33:01.388Z,93399.28
2022-09-09T17:38:08.065Z,93402.89
2022-09-09T17:43:16.010Z,93396.96
2022-09-09T17:48:22.733Z,93391.14
2022-09-09T17:53:30.255Z,93391.05
2022-09-09T17:58:41.654Z,93400.51
2022-09-09T18:03:51.165Z,93399.25
2022-09-09T18:09:01.883Z,93409.44
2022-09-09T18:14:10.929Z,93406.42
2022-09-09T18:19:22.127Z,93410.72
2022-09-09T18:24:28.889Z,93423.20
2022-09-09T18:29:35.676Z,93433.91
2022-09-09T18:34:43.602Z,93432.96
2022-09-09T18:39:50.951Z,93428.38
2022-09-09T18:44:58.535Z,93436.11
2022-09-09T18:50:05.655Z,93433.86
2022-09-09T18:55:13.374Z,93430.25
2022-09-09T19:00:20.113Z,93442.74
2022-09-09T19:05:28.036Z,93438.78
2022-09-09T19:10:39.628Z,93426.45
2022-09-09T19:15:46.632Z,93435.50
2022-09-09T19:20:53.269Z,93438.63
2022-09-09T19:26:06.883Z,93441.84
2022-09-09T19:31:15.806Z,93448.70
2022-09-09T19:36:23.359Z,93446.10
2022-09-09T19:41:36.205Z,93441.61
2022-09-09T19:46:46.399Z,93447.20
2022-09-09T19:51:53.133Z,93447.92
2022-09-09T19:57:01.346Z,93446.17
2022-09-09T20:02:08.095Z,93450.50
2022-09-09T20:07:15.275Z,93450.98
2022-09-09T20:12:22.873Z,93451.72
2022-09-09T20:17:29.580Z,93449.78
2022-09-09T20:22:37.485Z,93458.45
2022-09-09T20:27:45.672Z,93465.44
2022-09-09T20:32:52.397Z,93462.64
2022-09-09T20:37:59.238Z,93465.09
2022-09-09T20:43:08.483Z,93468.48
2022-09-09T20:48:15.188Z,93473.78
2022-09-09T20:53:23.576Z,93468.35
2022-09-09T20:58:35.130Z,93468.52
2022-09-09T21:03:42.263Z,93474.42
2022-09-09T21:08:52.482Z,93469.37
2022-09-09T21:14:00.558Z,93470.98
2022-09-09T21:19:07.298Z,93471.11
2022-09-09T21:24:13.969Z,93468.47
2022-09-09T21:29:21.374Z,93478.96
2022-09-09T21:34:28.114Z,93479.36
2022-09-09T21:39:36.301Z,93475.47
2022-09-09T21:44:42.999Z,93474.72
2022-09-09T21:49:49.706Z,93468.03
2022-09-09T21:54:56.449Z,93466.28
2022-09-09T22:00:03.967Z,93464.84
2022-09-09T22:05:11.101Z,93462.57
2022-09-09T22:10:19.365Z,93463.08
2022-09-09T22:15:26.075Z,93460.51
2022-09-09T22:20:36.680Z,93463.08
2022-09-09T22:25:44.989Z,93461.94
2022-09-09T22:30:51.882Z,93460.34
2022-09-09T22:35:59.433Z,93460.18
2022-09-09T22:41:07.883Z,93461.47
2022-09-09T22:46:15.745Z,93464.27
2022-09-09T22:51:22.520Z,93456.38
2022-09-09T22:56:29.933Z,93450.51
2022-09-09T23:01:37.396Z,93455.30
2022-09-09T23:06:45.673Z,93446.61
2022-09-09T23:11:52.307Z,93449.31
2022-09-09T23:16:59.378Z,93440.66
2022-09-09T23:22:07.231Z,93444.59
2022-09-09T23:27:14.867Z,93439.25
2022-09-09T23:32:23.886Z,93431.94
2022-09-09T23:37:32.316Z,93425.83
2022-09-09T23:42:39.057Z,93428.55
2022-09-09T23:47:46.925Z,93429.35
2022-09-09T23:52:55.014Z,93428.20
2022-09-09T23:58:03.660Z,93431.50
